Junius, South Dakota
Current Conditions -  °F | °C
As of 7:35 PM on Monday 20 Oct 2014 (Local Time) from KMDS Reporting Station
Clear Clear  
Wind Chill: 50°   Ceiling: Unl
Heat Index: 50°   Visibility: 10mi
Dew Point: 36°   Wind: 3mph
Humidity: 58%   Direction: 280°W
Pressure: 30.04"   Gusts: NA
Location:  43.9866°N, 97.1364°W
Report Text: KMDS 210035Z AUTO 28003KT 10SM CLR 10/02 A3004 RMK AO2
Loading
Personal Weather Stations






























Interactive Weather Map
Tropical Storm Tracking
New forecast layout! Learn more

10-Day Weather Forecast

Advertisements
Track Severe Weather on mobile